Williams, Iowa
Current Conditions -  °F | °C
As of 5:55 PM on Saturday 22 Nov 2014 (Local Time) from KIFA Reporting Station
Overcast Overcast  
Wind Chill: 43°   Ceiling: 1000
Heat Index: 48°   Visibility: 10mi
Dew Point: 45°   Wind: 14mph
Humidity: 87%   Direction: 190°S
Pressure: 29.67"   Gusts: NA
Location:  42.49°N, 93.54°W
Report Text: KIFA 222355Z AUTO 19012KT 10SM BKN010 OVC013 09/07 A2967 RMK AO2 T00910071 10105 20046
Loading
Personal Weather Stations






























Interactive Weather Map New forecast layout! Learn more

10-Day Weather Forecast

Advertisements
Track Severe Weather on mobile